createdAt,value
2024-04-18T00:00:01.363Z,5.40
2024-04-18T00:02:59.674Z,7.80
2024-04-18T00:05:34.010Z,5.70
2024-04-18T00:08:02.266Z,8.10
2024-04-18T00:10:30.137Z,8.60
2024-04-18T00:12:58.262Z,7.70
2024-04-18T00:15:27.042Z,7.20
2024-04-18T00:17:57.838Z,7.70
2024-04-18T00:20:26.521Z,8.00
2024-04-18T00:22:54.464Z,9.90
2024-04-18T00:25:34.613Z,9.30
2024-04-18T00:28:02.848Z,9.20
2024-04-18T00:30:40.910Z,9.80
2024-04-18T00:33:09.918Z,10.20
2024-04-18T00:35:40.849Z,5.90
2024-04-18T00:38:15.585Z,6.40
2024-04-18T00:40:44.345Z,5.10
2024-04-18T00:43:21.779Z,6.90
2024-04-18T00:45:54.642Z,8.50
2024-04-18T00:48:23.873Z,8.30
2024-04-18T00:50:54.954Z,8.40
2024-04-18T00:53:25.596Z,6.40
2024-04-18T00:55:55.836Z,10.00
2024-04-18T00:58:43.028Z,8.90
2024-04-18T01:01:22.071Z,11.40
2024-04-18T01:03:57.477Z,10.50
2024-04-18T01:06:42.685Z,8.20
2024-04-18T01:09:17.562Z,10.50
2024-04-18T01:12:04.662Z,9.00
2024-04-18T01:14:32.827Z,11.70
2024-04-18T01:17:04.626Z,11.80
2024-04-18T01:19:32.916Z,9.60
2024-04-18T01:22:04.733Z,13.00
2024-04-18T01:24:34.652Z,9.70
2024-04-18T01:27:02.975Z,11.10
2024-04-18T01:29:44.141Z,11.20
2024-04-18T01:32:38.675Z,10.80
2024-04-18T01:35:07.752Z,13.40
2024-04-18T01:37:48.555Z,15.50
2024-04-18T01:40:17.164Z,11.00
2024-04-18T01:42:45.289Z,13.00
2024-04-18T01:45:25.998Z,12.20
2024-04-18T01:48:13.496Z,13.60
2024-04-18T01:50:41.705Z,11.50
2024-04-18T01:53:30.277Z,12.80
2024-04-18T01:55:58.251Z,12.80
2024-04-18T01:58:45.330Z,10.20
2024-04-18T02:01:13.756Z,12.20
2024-04-18T02:03:42.024Z,12.20
2024-04-18T02:06:16.707Z,10.00
2024-04-18T02:08:50.789Z,9.70
2024-04-18T02:11:19.121Z,9.30
2024-04-18T02:14:06.126Z,9.60
2024-04-18T02:16:34.241Z,10.30
2024-04-18T02:19:20.963Z,10.80
2024-04-18T02:22:07.532Z,12.60
2024-04-18T02:24:44.194Z,13.40
2024-04-18T02:27:12.270Z,13.70
2024-04-18T02:29:40.630Z,13.20
2024-04-18T02:32:08.708Z,13.90
2024-04-18T02:34:36.796Z,14.50
2024-04-18T02:37:24.012Z,16.60
2024-04-18T02:39:52.256Z,13.60
2024-04-18T02:42:26.725Z,13.20
2024-04-18T02:45:01.365Z,16.40
2024-04-18T02:47:51.058Z,11.70
2024-04-18T02:50:37.528Z,11.80
2024-04-18T02:53:05.895Z,12.60
2024-04-18T02:55:33.803Z,11.20
2024-04-18T02:58:01.698Z,13.50
2024-04-18T03:00:30.541Z,14.00
2024-04-18T03:03:10.675Z,9.80
2024-04-18T03:06:05.454Z,10.70
2024-04-18T03:08:33.463Z,13.70
2024-04-18T03:11:19.745Z,16.40
2024-04-18T03:14:07.373Z,12.90
2024-04-18T03:16:36.347Z,15.70
2024-04-18T03:19:19.970Z,15.10
2024-04-18T03:21:54.777Z,12.90
2024-04-18T03:24:24.344Z,13.70
2024-04-18T03:26:53.728Z,15.40
2024-04-18T03:29:21.658Z,19.00
2024-04-18T03:31:58.797Z,19.20
2024-04-18T03:34:45.834Z,18.30
2024-04-18T03:37:13.934Z,23.20
2024-04-18T03:39:42.057Z,17.40
2024-04-18T03:42:10.001Z,14.40
2024-04-18T03:44:54.575Z,16.70
2024-04-18T03:47:22.583Z,16.10
2024-04-18T03:50:09.302Z,13.10
2024-04-18T03:52:41.124Z,13.50
2024-04-18T03:55:27.884Z,12.10
2024-04-18T03:57:56.016Z,14.50
2024-04-18T04:00:43.622Z,12.00
2024-04-18T04:03:12.238Z,10.70
2024-04-18T04:05:40.776Z,10.30
2024-04-18T04:08:08.934Z,10.40
2024-04-18T04:10:42.184Z,10.10
2024-04-18T04:13:10.913Z,11.00
2024-04-18T04:15:50.126Z,8.50
2024-04-18T04:18:36.840Z,10.40
2024-04-18T04:21:23.829Z,9.90
2024-04-18T04:23:52.365Z,9.90
2024-04-18T04:26:21.068Z,10.90
2024-04-18T04:28:49.127Z,10.30
2024-04-18T04:31:16.990Z,10.20
2024-04-18T04:33:45.271Z,11.10
2024-04-18T04:36:13.296Z,9.00
2024-04-18T04:38:41.540Z,10.10
2024-04-18T04:41:09.493Z,12.40
2024-04-18T04:43:39.906Z,11.60
2024-04-18T04:46:15.619Z,12.30
2024-04-18T04:48:43.543Z,11.90
2024-04-18T04:51:11.696Z,11.90
2024-04-18T04:53:39.771Z,8.70
2024-04-18T04:56:09.500Z,10.50
2024-04-18T04:58:37.695Z,8.00
2024-04-18T05:01:05.700Z,8.00
2024-04-18T05:03:39.931Z,10.20
2024-04-18T05:06:26.995Z,8.90
2024-04-18T05:09:17.601Z,7.80
2024-04-18T05:11:46.558Z,8.30
2024-04-18T05:14:33.141Z,12.40
2024-04-18T05:17:21.468Z,12.00
2024-04-18T05:20:10.461Z,9.90
2024-04-18T05:22:38.432Z,8.70
2024-04-18T05:25:07.523Z,10.10
2024-04-18T05:27:44.045Z,8.50
2024-04-18T05:30:51.212Z,6.90
2024-04-18T05:33:19.314Z,8.80
2024-04-18T05:35:47.622Z,7.80
2024-04-18T05:38:15.800Z,6.50
2024-04-18T05:40:45.665Z,5.90
2024-04-18T05:43:14.288Z,6.70
2024-04-18T05:45:50.195Z,6.20
2024-04-18T05:48:19.628Z,6.20
2024-04-18T05:50:47.825Z,7.20
2024-04-18T05:53:22.099Z,7.70
2024-04-18T05:55:53.963Z,9.10
2024-04-18T05:58:22.038Z,7.80
2024-04-18T06:00:57.160Z,8.60
2024-04-18T06:03:27.092Z,9.00
2024-04-18T06:05:57.493Z,7.90
2024-04-18T06:08:26.137Z,8.70
2024-04-18T06:10:54.331Z,8.80
2024-04-18T06:13:26.172Z,6.50
2024-04-18T06:15:54.964Z,7.00
2024-04-18T06:18:23.488Z,7.70
2024-04-18T06:20:51.879Z,6.00
2024-04-18T06:23:20.596Z,6.90
2024-04-18T06:26:08.032Z,6.40
2024-04-18T06:28:36.404Z,6.40
2024-04-18T06:31:04.497Z,6.70
2024-04-18T06:33:32.828Z,5.80
2024-04-18T06:36:02.962Z,4.60
2024-04-18T06:38:31.148Z,5.20
2024-04-18T06:40:59.522Z,7.30
2024-04-18T06:43:42.421Z,6.60
2024-04-18T06:46:11.331Z,8.10
2024-04-18T06:48:39.521Z,6.90
2024-04-18T06:51:07.770Z,7.10
2024-04-18T06:53:35.790Z,5.40
2024-04-18T06:56:04.462Z,5.00
2024-04-18T06:58:32.815Z,7.90
2024-04-18T07:01:00.881Z,6.70
2024-04-18T07:03:29.238Z,6.70
2024-04-18T07:06:00.051Z,5.80
2024-04-18T07:08:28.246Z,4.20
2024-04-18T07:10:56.816Z,5.60
2024-04-18T07:13:33.316Z,4.90
2024-04-18T07:16:22.901Z,4.90
2024-04-18T07:18:56.971Z,4.00
2024-04-18T07:21:24.990Z,4.90
2024-04-18T07:24:13.104Z,4.80
2024-04-18T07:26:44.044Z,5.10
2024-04-18T07:29:12.336Z,4.50
2024-04-18T07:31:40.631Z,4.20
2024-04-18T07:34:15.499Z,4.10
2024-04-18T07:36:48.715Z,5.00
2024-04-18T07:39:16.996Z,4.00
2024-04-18T07:41:45.085Z,4.00
2024-04-18T07:44:13.746Z,3.50
2024-04-18T07:46:41.959Z,4.80
2024-04-18T07:49:11.602Z,6.10
2024-04-18T07:51:41.658Z,3.90
2024-04-18T07:54:09.733Z,3.20
2024-04-18T07:56:37.783Z,3.50
2024-04-18T07:59:06.787Z,3.60
2024-04-18T08:01:38.338Z,4.70
2024-04-18T08:04:27.500Z,3.90
2024-04-18T08:06:58.561Z,3.90
2024-04-18T08:09:30.516Z,4.00
2024-04-18T08:14:35.481Z,3.40
2024-04-18T08:17:06.089Z,5.20
2024-04-18T08:19:34.009Z,3.30
2024-04-18T08:22:04.426Z,4.50
2024-04-18T08:24:35.013Z,4.20
2024-04-18T08:27:09.523Z,7.20
2024-04-18T08:29:37.922Z,6.90
2024-04-18T08:32:06.523Z,6.80
2024-04-18T08:34:39.323Z,5.70
2024-04-18T08:37:09.189Z,5.60
2024-04-18T08:39:37.499Z,3.80
2024-04-18T08:42:10.741Z,5.80
2024-04-18T08:44:39.147Z,5.50
2024-04-18T08:47:08.728Z,5.80
2024-04-18T08:49:39.411Z,4.80
2024-04-18T08:52:07.960Z,6.60
2024-04-18T08:54:36.257Z,6.70
2024-04-18T08:57:08.392Z,5.70
2024-04-18T08:59:36.506Z,7.90
2024-04-18T09:02:05.103Z,7.10
2024-04-18T09:04:36.432Z,5.90
2024-04-18T09:07:04.995Z,6.10
2024-04-18T09:09:33.934Z,4.90
2024-04-18T09:12:04.314Z,4.20
2024-04-18T09:14:33.740Z,3.80
2024-04-18T09:17:01.786Z,3.20
2024-04-18T09:19:29.884Z,3.80
2024-04-18T09:22:00.890Z,3.30
2024-04-18T09:24:29.304Z,5.30
2024-04-18T09:26:57.752Z,5.20
2024-04-18T09:29:25.926Z,5.30
2024-04-18T09:31:57.062Z,3.70
2024-04-18T09:34:26.296Z,2.90
2024-04-18T09:36:55.046Z,2.50
2024-04-18T09:39:29.125Z,2.70
2024-04-18T09:42:19.686Z,2.60
2024-04-18T09:44:58.743Z,2.50
2024-04-18T09:47:28.281Z,2.90
2024-04-18T09:49:57.078Z,3.50
2024-04-18T09:52:26.645Z,3.80
2024-04-18T09:54:57.525Z,1.30
2024-04-18T09:57:28.814Z,2.40
2024-04-18T09:59:58.483Z,2.20
2024-04-18T10:02:29.440Z,1.70
2024-04-18T10:04:57.521Z,2.90
2024-04-18T10:07:26.822Z,2.20
2024-04-18T10:09:55.436Z,2.40
2024-04-18T10:12:35.277Z,2.60
2024-04-18T10:15:03.866Z,1.70
2024-04-18T10:17:32.562Z,1.50
2024-04-18T10:20:03.026Z,2.10
2024-04-18T10:22:45.209Z,1.40
2024-04-18T10:25:20.734Z,0.90
2024-04-18T10:27:48.627Z,1.70
2024-04-18T10:30:19.852Z,1.10
2024-04-18T10:32:49.494Z,1.30
2024-04-18T10:35:18.091Z,2.00
2024-04-18T10:37:55.658Z,1.90
2024-04-18T10:40:23.857Z,1.90
2024-04-18T10:42:51.831Z,2.70
2024-04-18T10:45:19.810Z,3.00
2024-04-18T10:47:53.820Z,2.00
2024-04-18T10:50:21.941Z,4.00
2024-04-18T10:52:50.341Z,3.30
2024-04-18T10:55:18.614Z,1.60
2024-04-18T10:57:46.614Z,1.10
2024-04-18T11:00:18.427Z,3.30
2024-04-18T11:02:46.623Z,1.60
2024-04-18T11:05:15.002Z,2.10
2024-04-18T11:07:51.404Z,1.80
2024-04-18T11:10:20.307Z,1.30
2024-04-18T11:12:48.763Z,1.60
2024-04-18T11:15:17.941Z,2.10
2024-04-18T11:17:46.902Z,1.50
2024-04-18T11:20:15.304Z,2.50
2024-04-18T11:22:47.966Z,2.10
2024-04-18T11:25:18.629Z,1.30
2024-04-18T11:28:09.979Z,2.90
2024-04-18T11:30:41.470Z,1.70
2024-04-18T11:33:14.280Z,1.70
2024-04-18T11:35:42.491Z,2.90
2024-04-18T11:38:22.248Z,1.90
2024-04-18T11:40:50.148Z,2.00
2024-04-18T11:43:18.029Z,2.10
2024-04-18T11:45:46.305Z,1.50
2024-04-18T11:48:14.593Z,1.80
2024-04-18T11:50:43.330Z,2.20
2024-04-18T11:53:11.302Z,1.90
2024-04-18T11:55:41.373Z,2.80
2024-04-18T11:58:27.722Z,2.90
2024-04-18T12:00:55.802Z,1.70
2024-04-18T12:03:41.445Z,2.00
2024-04-18T12:06:48.103Z,2.10
2024-04-18T12:09:29.974Z,2.30
2024-04-18T12:12:02.101Z,2.80
2024-04-18T12:14:48.714Z,2.30
2024-04-18T12:17:30.300Z,1.70
2024-04-18T12:20:18.051Z,2.20
2024-04-18T12:22:46.825Z,1.00
2024-04-18T12:25:18.764Z,2.20
2024-04-18T12:27:47.428Z,1.70
2024-04-18T12:30:32.116Z,2.10
2024-04-18T12:33:19.126Z,1.70
2024-04-18T12:35:48.580Z,2.10
2024-04-18T12:38:16.705Z,1.80
2024-04-18T12:40:45.714Z,1.10
2024-04-18T12:43:18.203Z,1.40
2024-04-18T12:46:10.647Z,1.30
2024-04-18T12:48:53.626Z,2.30
2024-04-18T12:51:22.141Z,1.70
2024-04-18T12:53:51.444Z,1.40
2024-04-18T12:56:41.450Z,1.80
2024-04-18T12:59:22.816Z,2.10
2024-04-18T13:01:50.893Z,2.70
2024-04-18T13:04:22.140Z,2.60
2024-04-18T13:06:51.066Z,2.30
2024-04-18T13:09:31.933Z,2.40
2024-04-18T13:12:04.311Z,2.80
2024-04-18T13:14:51.755Z,2.10
2024-04-18T13:17:20.944Z,3.30
2024-04-18T13:19:49.229Z,2.80
2024-04-18T13:22:17.247Z,2.40
2024-04-18T13:24:46.554Z,2.00
2024-04-18T13:27:29.113Z,2.60
2024-04-18T13:29:57.149Z,3.10
2024-04-18T13:32:38.875Z,2.70
2024-04-18T13:37:35.937Z,3.00
2024-04-18T13:40:21.787Z,1.10
2024-04-18T13:43:00.371Z,1.80
2024-04-18T13:45:32.725Z,1.90
2024-04-18T13:48:02.789Z,2.40
2024-04-18T13:50:45.457Z,1.80
2024-04-18T13:53:16.654Z,2.10
2024-04-18T13:55:52.276Z,1.30
2024-04-18T13:58:23.092Z,2.20
2024-04-18T14:01:00.059Z,2.00
2024-04-18T14:03:28.779Z,1.40
2024-04-18T14:06:08.390Z,2.00
2024-04-18T14:08:41.288Z,1.00
2024-04-18T14:11:29.258Z,1.70
2024-04-18T14:14:11.006Z,1.90
2024-04-18T14:17:18.179Z,1.50
2024-04-18T14:20:04.850Z,2.10
2024-04-18T14:22:32.806Z,4.40
2024-04-18T14:25:00.779Z,1.80
2024-04-18T14:27:34.727Z,2.30
2024-04-18T14:30:03.584Z,1.00
2024-04-18T14:32:34.919Z,2.00
2024-04-18T14:35:04.049Z,3.60
2024-04-18T14:37:33.184Z,2.70
2024-04-18T14:40:01.247Z,3.30
2024-04-18T14:42:29.547Z,2.40
2024-04-18T14:44:57.436Z,3.10
2024-04-18T14:47:25.361Z,2.30
2024-04-18T14:50:03.533Z,2.10
2024-04-18T14:52:37.694Z,2.30
2024-04-18T14:55:25.621Z,1.70
2024-04-18T14:58:03.186Z,2.30
2024-04-18T15:00:51.311Z,2.00
2024-04-18T15:03:20.376Z,2.00
2024-04-18T15:05:55.218Z,2.20
2024-04-18T15:08:42.663Z,2.10
2024-04-18T15:11:28.727Z,2.80
2024-04-18T15:14:07.077Z,2.40
2024-04-18T15:16:35.671Z,2.40
2024-04-18T15:19:03.990Z,2.00
2024-04-18T15:21:51.296Z,3.60
2024-04-18T15:24:23.107Z,2.00
2024-04-18T15:27:03.494Z,2.00
2024-04-18T15:29:33.032Z,3.30
2024-04-18T15:32:21.260Z,2.50
2024-04-18T15:34:49.398Z,2.50
2024-04-18T15:37:36.632Z,2.60
2024-04-18T15:40:05.210Z,2.30
2024-04-18T15:42:33.487Z,2.50
2024-04-18T15:45:02.673Z,2.60
2024-04-18T15:47:32.962Z,3.00
2024-04-18T15:50:24.148Z,2.60
2024-04-18T15:52:52.423Z,2.20
2024-04-18T15:55:31.082Z,2.90
2024-04-18T15:58:18.638Z,2.50
2024-04-18T16:00:46.859Z,2.50
2024-04-18T16:03:34.568Z,1.80
2024-04-18T16:06:22.789Z,2.30
2024-04-18T16:09:09.523Z,1.60
2024-04-18T16:11:41.409Z,3.00
2024-04-18T16:14:30.044Z,2.10
2024-04-18T16:17:05.802Z,2.20
2024-04-18T16:19:40.554Z,2.40
2024-04-18T16:22:08.674Z,2.10
2024-04-18T16:24:49.361Z,2.10
2024-04-18T16:27:17.738Z,3.70
2024-04-18T16:30:01.232Z,2.30
2024-04-18T16:32:42.048Z,3.10
2024-04-18T16:35:10.211Z,3.50
2024-04-18T16:37:40.580Z,3.10
2024-04-18T16:40:18.482Z,2.30
2024-04-18T16:43:06.747Z,2.90
2024-04-18T16:48:21.283Z,3.90
2024-04-18T16:50:49.814Z,3.00
2024-04-18T16:53:17.840Z,2.90
2024-04-18T16:55:46.616Z,3.70
2024-04-18T16:58:18.398Z,3.30
2024-04-18T17:00:58.039Z,2.60
2024-04-18T17:03:26.986Z,3.10
2024-04-18T17:06:06.296Z,3.30
2024-04-18T17:11:02.516Z,3.20
2024-04-18T17:13:54.044Z,4.10
2024-04-18T17:16:23.314Z,4.20
2024-04-18T17:18:51.500Z,3.50
2024-04-18T17:21:19.839Z,2.70
2024-04-18T17:23:47.923Z,4.70
2024-04-18T17:26:15.905Z,3.30
2024-04-18T17:28:43.838Z,5.10
2024-04-18T17:31:12.087Z,4.60
2024-04-18T17:33:40.339Z,3.40
2024-04-18T17:36:08.972Z,3.50
2024-04-18T17:38:47.827Z,4.80
2024-04-18T17:41:32.056Z,4.40
2024-04-18T17:44:18.720Z,3.40
2024-04-18T17:47:00.067Z,5.60
2024-04-18T17:49:29.314Z,3.60
2024-04-18T17:51:57.332Z,6.10
2024-04-18T17:54:25.285Z,4.50
2024-04-18T17:56:53.577Z,3.90
2024-04-18T17:59:21.683Z,4.50
2024-04-18T18:01:49.698Z,4.80
2024-04-18T18:04:18.402Z,4.40
2024-04-18T18:06:46.640Z,3.90
2024-04-18T18:09:14.786Z,4.60
2024-04-18T18:11:43.037Z,3.10
2024-04-18T18:14:11.288Z,3.80
2024-04-18T18:16:58.786Z,4.00
2024-04-18T18:19:27.210Z,3.70
2024-04-18T18:21:58.252Z,3.50
2024-04-18T18:24:26.690Z,3.40
2024-04-18T18:26:55.211Z,3.50
2024-04-18T18:29:23.415Z,3.70
2024-04-18T18:32:14.336Z,4.00
2024-04-18T18:34:51.525Z,6.00
2024-04-18T18:37:19.439Z,4.70
2024-04-18T18:40:08.628Z,7.20
2024-04-18T18:42:37.729Z,5.40
2024-04-18T18:45:11.515Z,6.90
2024-04-18T18:47:39.667Z,5.20
2024-04-18T18:50:19.852Z,8.00
2024-04-18T18:52:47.901Z,7.30
2024-04-18T18:55:36.156Z,4.70
2024-04-18T18:58:04.726Z,7.90
2024-04-18T19:00:32.697Z,5.10
2024-04-18T19:03:10.489Z,5.90
2024-04-18T19:05:46.578Z,3.30
2024-04-18T19:08:14.566Z,4.60
2024-04-18T19:10:55.374Z,7.20
2024-04-18T19:13:23.463Z,4.80
2024-04-18T19:15:58.764Z,5.30
2024-04-18T19:18:26.785Z,4.40
2024-04-18T19:20:54.839Z,5.30
2024-04-18T19:23:36.495Z,6.20
2024-04-18T19:26:05.493Z,5.70
2024-04-18T19:28:34.420Z,6.50
2024-04-18T19:31:05.543Z,6.50
2024-04-18T19:33:34.080Z,5.80
2024-04-18T19:36:03.046Z,4.50
2024-04-18T19:38:34.091Z,4.80
2024-04-18T19:41:20.883Z,4.70
2024-04-18T19:43:49.052Z,6.00
2024-04-18T19:46:17.302Z,6.50
2024-04-18T19:49:05.254Z,5.50
2024-04-18T19:51:53.308Z,5.90
2024-04-18T19:54:21.197Z,4.90
2024-04-18T19:56:49.432Z,5.40
2024-04-18T19:59:17.504Z,5.40
2024-04-18T20:01:45.866Z,5.30
2024-04-18T20:04:14.972Z,6.40
2024-04-18T20:06:43.078Z,6.60
2024-04-18T20:09:11.261Z,7.20
2024-04-18T20:11:39.470Z,7.60
2024-04-18T20:14:07.678Z,7.80
2024-04-18T20:16:36.436Z,5.90
2024-04-18T20:19:14.745Z,8.40
2024-04-18T20:21:44.339Z,5.20
2024-04-18T20:24:14.419Z,7.50
2024-04-18T20:27:01.965Z,7.50
2024-04-18T20:29:46.180Z,6.70
2024-04-18T20:32:25.414Z,7.30
2024-04-18T20:34:55.016Z,8.50
2024-04-18T20:37:24.737Z,9.00
2024-04-18T20:39:56.275Z,5.70
2024-04-18T20:42:27.503Z,7.30
2024-04-18T20:45:03.294Z,7.50
2024-04-18T20:47:31.965Z,9.50
2024-04-18T20:50:04.443Z,6.60
2024-04-18T20:52:32.654Z,6.10
2024-04-18T20:55:01.135Z,6.40
2024-04-18T20:57:29.075Z,6.70
2024-04-18T20:59:57.015Z,9.50
2024-04-18T21:02:25.826Z,7.90
2024-04-18T21:04:53.860Z,8.80
2024-04-18T21:07:23.190Z,7.60
2024-04-18T21:09:51.122Z,7.70
2024-04-18T21:12:20.743Z,8.70
2024-04-18T21:14:48.745Z,7.80
2024-04-18T21:17:16.806Z,9.40
2024-04-18T21:19:44.870Z,6.90
2024-04-18T21:22:12.777Z,7.20
2024-04-18T21:24:41.042Z,7.20
2024-04-18T21:27:09.118Z,7.50
2024-04-18T21:29:37.123Z,7.50
2024-04-18T21:32:05.635Z,8.40
2024-04-18T21:34:33.616Z,7.60
2024-04-18T21:37:01.600Z,8.70
2024-04-18T21:39:29.926Z,7.90
2024-04-18T21:41:58.155Z,8.80
2024-04-18T21:44:25.966Z,9.50
2024-04-18T21:46:53.934Z,7.50
2024-04-18T21:49:21.999Z,7.30
2024-04-18T21:51:50.374Z,7.70
2024-04-18T21:54:18.387Z,8.30
2024-04-18T21:56:46.414Z,8.50
2024-04-18T21:59:14.936Z,8.90
2024-04-18T22:01:43.231Z,6.60
2024-04-18T22:04:12.085Z,9.00
2024-04-18T22:06:40.742Z,8.20
2024-04-18T22:09:09.609Z,8.10
2024-04-18T22:11:37.692Z,9.80
2024-04-18T22:14:07.935Z,8.50
2024-04-18T22:16:36.159Z,8.70
2024-04-18T22:19:04.192Z,6.50
2024-04-18T22:21:39.613Z,10.70
2024-04-18T22:24:08.559Z,9.40
2024-04-18T22:26:37.209Z,8.70
2024-04-18T22:29:05.364Z,8.20
2024-04-18T22:31:33.905Z,8.40
2024-04-18T22:34:01.965Z,9.10
2024-04-18T22:36:30.082Z,8.30
2024-04-18T22:38:58.398Z,7.80
2024-04-18T22:41:29.386Z,8.50
2024-04-18T22:43:57.955Z,9.40
2024-04-18T22:46:26.476Z,9.20
2024-04-18T22:48:54.812Z,10.50
2024-04-18T22:51:23.319Z,9.30
2024-04-18T22:53:51.248Z,10.20
2024-04-18T22:56:20.620Z,9.90
2024-04-18T22:58:50.306Z,10.40
2024-04-18T23:01:18.827Z,11.40
2024-04-18T23:03:46.987Z,10.80
2024-04-18T23:06:16.064Z,9.60
2024-04-18T23:08:44.738Z,9.40
2024-04-18T23:11:14.531Z,11.30
2024-04-18T23:13:42.678Z,11.00
2024-04-18T23:16:10.893Z,10.00
2024-04-18T23:18:39.042Z,9.30
2024-04-18T23:21:07.154Z,11.80
2024-04-18T23:23:35.764Z,8.00
2024-04-18T23:26:04.169Z,9.30
2024-04-18T23:28:32.287Z,8.00
2024-04-18T23:31:01.520Z,8.60
2024-04-18T23:33:29.638Z,9.40
2024-04-18T23:35:57.644Z,9.60
2024-04-18T23:38:25.621Z,10.40
2024-04-18T23:40:53.535Z,9.20
2024-04-18T23:43:21.619Z,10.90
2024-04-18T23:45:49.853Z,7.10
2024-04-18T23:48:18.244Z,8.10
2024-04-18T23:50:46.429Z,8.50
2024-04-18T23:53:14.495Z,7.90
2024-04-18T23:55:42.490Z,8.80
2024-04-18T23:58:10.386Z,7.20
